createdAt,value
2018-07-04T00:01:39.963Z,57.10
2018-07-04T00:04:19.911Z,57.10
2018-07-04T00:06:59.736Z,57.10
2018-07-04T00:09:39.986Z,57.70
2018-07-04T00:12:20.260Z,58.00
2018-07-04T00:15:00.299Z,58.50
2018-07-04T00:17:41.096Z,59.00
2018-07-04T00:20:25.433Z,59.50
2018-07-04T00:23:05.423Z,60.10
2018-07-04T00:25:45.444Z,60.60
2018-07-04T00:28:25.201Z,61.20
2018-07-04T00:31:05.288Z,62.10
2018-07-04T00:33:45.424Z,62.10
2018-07-04T00:36:25.417Z,63.30
2018-07-04T00:39:06.396Z,63.00
2018-07-04T00:41:47.319Z,63.40
2018-07-04T00:44:27.410Z,63.40
2018-07-04T00:47:07.475Z,63.00
2018-07-04T00:49:47.421Z,63.30
2018-07-04T00:52:27.282Z,63.80
2018-07-04T00:55:07.274Z,63.70
2018-07-04T00:57:47.180Z,63.60
2018-07-04T01:00:27.234Z,65.20
2018-07-04T01:03:07.441Z,65.10
2018-07-04T01:05:47.489Z,64.90
2018-07-04T01:08:27.386Z,64.70
2018-07-04T01:11:07.654Z,66.60
2018-07-04T01:13:47.830Z,66.70
2018-07-04T01:16:27.890Z,67.20
2018-07-04T01:19:08.062Z,66.30
2018-07-04T01:21:48.208Z,66.10
2018-07-04T01:24:28.283Z,66.60
2018-07-04T01:27:08.357Z,67.90
2018-07-04T01:29:48.472Z,67.50
2018-07-04T01:32:28.360Z,67.10
2018-07-04T01:35:08.273Z,67.90
2018-07-04T01:37:48.097Z,68.00
2018-07-04T01:40:27.953Z,68.30
2018-07-04T01:43:07.615Z,68.20
2018-07-04T01:45:47.558Z,69.00
2018-07-04T01:48:27.631Z,68.70
2018-07-04T01:51:07.491Z,68.70
2018-07-04T01:53:47.477Z,68.90
2018-07-04T01:56:27.495Z,68.90
2018-07-04T01:59:07.577Z,69.30
2018-07-04T02:01:47.515Z,69.20
2018-07-04T02:04:27.265Z,69.50
2018-07-04T02:07:07.168Z,70.00
2018-07-04T02:09:47.143Z,69.90
2018-07-04T02:12:27.181Z,70.60
2018-07-04T02:15:06.896Z,70.50
2018-07-04T02:17:46.885Z,70.80
2018-07-04T02:20:27.073Z,70.70
2018-07-04T02:23:07.129Z,70.80
2018-07-04T02:25:46.980Z,71.90
2018-07-04T02:28:26.991Z,71.60
2018-07-04T02:31:11.327Z,72.00
2018-07-04T02:33:51.416Z,71.70
2018-07-04T02:36:31.437Z,71.70
2018-07-04T02:39:11.437Z,72.10
2018-07-04T02:41:51.487Z,72.00
2018-07-04T02:44:31.551Z,72.00
2018-07-04T02:47:16.947Z,72.30
2018-07-04T02:49:56.917Z,72.80
2018-07-04T02:52:36.754Z,73.30
2018-07-04T02:55:16.724Z,73.10
2018-07-04T02:57:56.670Z,73.00
2018-07-04T03:00:36.580Z,72.80
2018-07-04T03:03:16.613Z,72.90
2018-07-04T03:05:56.560Z,73.10
2018-07-04T03:08:36.978Z,74.30
2018-07-04T03:11:16.885Z,73.20
2018-07-04T03:13:56.692Z,74.30
2018-07-04T03:16:36.724Z,74.40
2018-07-04T03:19:16.721Z,74.50
2018-07-04T03:21:56.569Z,74.60
2018-07-04T03:24:36.619Z,74.20
2018-07-04T03:27:16.737Z,74.20
2018-07-04T03:29:56.795Z,73.50
2018-07-04T03:32:36.833Z,74.00
2018-07-04T03:35:16.761Z,73.10
2018-07-04T03:37:56.717Z,74.10
2018-07-04T03:40:36.850Z,73.20
2018-07-04T03:43:16.720Z,73.50
2018-07-04T03:45:56.599Z,72.80
2018-07-04T03:48:36.610Z,72.90
2018-07-04T03:51:16.720Z,73.60
2018-07-04T03:53:56.796Z,73.60
2018-07-04T03:56:36.662Z,73.30
2018-07-04T03:59:16.734Z,72.90
2018-07-04T04:01:56.589Z,73.00
2018-07-04T04:04:36.954Z,73.00
2018-07-04T04:07:16.800Z,72.80
2018-07-04T04:09:56.544Z,72.50
2018-07-04T04:12:36.492Z,73.20
2018-07-04T04:15:16.194Z,72.20
2018-07-04T04:17:56.822Z,72.10
2018-07-04T04:20:36.739Z,71.40
2018-07-04T04:23:16.888Z,71.20
2018-07-04T04:25:56.684Z,71.70
2018-07-04T04:28:37.050Z,71.80
2018-07-04T04:42:48.846Z,71.40
2018-07-04T04:45:28.718Z,71.40
2018-07-04T04:48:08.788Z,70.90
2018-07-04T04:50:48.912Z,70.00
2018-07-04T04:53:28.950Z,68.30
2018-07-04T04:56:09.149Z,66.60
2018-07-04T04:58:48.886Z,65.90
2018-07-04T05:01:29.006Z,64.90
2018-07-04T05:04:09.089Z,61.50
2018-07-04T05:06:49.118Z,60.00
2018-07-04T05:09:29.143Z,58.60
2018-07-04T05:12:08.974Z,56.90
2018-07-04T05:14:48.902Z,57.30
2018-07-04T05:17:28.798Z,55.30
2018-07-04T05:20:08.798Z,54.80
2018-07-04T05:22:48.758Z,53.20
2018-07-04T05:25:28.752Z,51.40
2018-07-04T05:28:08.872Z,50.40
2018-07-04T05:30:48.971Z,49.90
2018-07-04T05:33:28.755Z,49.10
2018-07-04T05:36:08.672Z,50.00
2018-07-04T05:38:48.662Z,49.80
2018-07-04T05:41:28.473Z,51.50
2018-07-04T05:44:08.460Z,53.20
2018-07-04T05:46:48.533Z,53.90
2018-07-04T05:49:28.509Z,53.90
2018-07-04T05:52:08.481Z,53.30
2018-07-04T05:54:48.549Z,51.80
2018-07-04T05:57:28.375Z,50.00
2018-07-04T06:00:08.007Z,49.00
2018-07-04T06:02:48.109Z,45.60
2018-07-04T06:05:28.251Z,42.60
2018-07-04T06:08:08.143Z,41.90
2018-07-04T06:10:48.137Z,41.40
2018-07-04T06:13:28.508Z,39.40
2018-07-04T06:16:08.691Z,38.40
2018-07-04T06:18:48.351Z,37.60
2018-07-04T06:21:29.071Z,37.10
2018-07-04T06:24:12.759Z,36.70
2018-07-04T06:26:52.578Z,35.50
2018-07-04T06:29:32.616Z,35.10
2018-07-04T06:32:12.845Z,34.50
2018-07-04T06:34:52.667Z,34.00
2018-07-04T06:37:32.551Z,34.40
2018-07-04T06:40:00.038Z,36.20
2018-07-04T06:42:27.579Z,35.70
2018-07-04T06:44:56.243Z,37.20
2018-07-04T06:47:24.039Z,39.50
2018-07-04T06:49:51.579Z,39.30
2018-07-04T06:52:19.496Z,40.70
2018-07-04T06:54:47.295Z,40.70
2018-07-04T06:57:14.819Z,40.80
2018-07-04T06:59:42.347Z,40.70
2018-07-04T07:02:11.952Z,40.40
2018-07-04T07:04:53.003Z,40.40
2018-07-04T07:07:33.171Z,40.90
2018-07-04T07:10:13.161Z,41.70
2018-07-04T07:12:53.207Z,43.10
2018-07-04T07:15:33.563Z,43.40
2018-07-04T07:18:14.672Z,44.20
2018-07-04T07:20:54.869Z,45.40
2018-07-04T07:23:34.927Z,44.20
2018-07-04T07:26:14.604Z,44.90
2018-07-04T07:28:54.582Z,45.00
2018-07-04T07:31:34.355Z,45.50
2018-07-04T07:34:14.570Z,45.80
2018-07-04T07:36:54.345Z,46.40
2018-07-04T07:39:34.165Z,48.10
2018-07-04T07:42:14.263Z,46.60
2018-07-04T07:44:54.025Z,47.40
2018-07-04T07:47:33.979Z,47.00
2018-07-04T07:50:14.022Z,46.80
2018-07-04T07:52:53.904Z,46.00
2018-07-04T07:55:33.737Z,47.90
2018-07-04T07:58:13.778Z,45.30
2018-07-04T08:00:53.596Z,46.90
2018-07-04T08:03:33.382Z,47.50
2018-07-04T08:06:13.265Z,46.60
2018-07-04T08:08:53.478Z,48.60
2018-07-04T08:11:33.561Z,47.30
2018-07-04T08:14:13.593Z,47.70
2018-07-04T08:16:53.598Z,46.70
2018-07-04T08:19:34.229Z,47.40
2018-07-04T08:22:14.331Z,48.60
2018-07-04T08:24:54.123Z,47.70
2018-07-04T08:27:34.049Z,47.30
2018-07-04T08:30:14.041Z,47.10
2018-07-04T08:32:54.017Z,48.80
2018-07-04T08:35:34.113Z,50.50
2018-07-04T08:38:14.098Z,50.80
2018-07-04T08:40:54.226Z,52.30
2018-07-04T08:43:34.035Z,53.20
2018-07-04T08:46:14.010Z,56.50
2018-07-04T08:48:54.013Z,53.30
2018-07-04T08:51:33.820Z,54.30
2018-07-04T08:54:14.956Z,54.40
2018-07-04T08:56:55.119Z,52.70
2018-07-04T08:59:34.943Z,52.30
2018-07-04T09:02:15.056Z,55.40
2018-07-04T09:07:29.375Z,50.40
2018-07-04T09:10:09.218Z,49.90
2018-07-04T09:12:49.041Z,51.40
2018-07-04T09:15:29.113Z,50.60
2018-07-04T09:18:08.921Z,47.90
2018-07-04T09:20:48.850Z,44.30
2018-07-04T09:23:28.802Z,41.50
2018-07-04T09:26:08.648Z,37.40
2018-07-04T09:28:48.932Z,37.60
2018-07-04T09:31:29.026Z,41.20
2018-07-04T09:34:09.121Z,41.30
2018-07-04T09:36:48.958Z,41.50
2018-07-04T09:39:29.445Z,40.70
2018-07-04T09:42:09.462Z,39.60
2018-07-04T09:44:49.942Z,39.90
2018-07-04T09:47:30.398Z,30.10
2018-07-04T09:50:10.304Z,29.80
2018-07-04T09:52:50.713Z,30.40
2018-07-04T09:55:30.369Z,29.10
2018-07-04T09:58:10.309Z,29.30
2018-07-04T10:00:55.579Z,30.00
2018-07-04T10:03:35.489Z,27.80
2018-07-04T10:06:15.402Z,29.90
2018-07-04T10:08:55.149Z,28.80
2018-07-04T10:11:35.190Z,28.80
2018-07-04T10:14:15.098Z,27.50
2018-07-04T10:16:55.196Z,27.00
2018-07-04T10:19:35.131Z,27.10
2018-07-04T10:22:15.091Z,26.60
2018-07-04T10:24:55.151Z,26.80
2018-07-04T10:27:35.070Z,27.70
2018-07-04T10:30:14.992Z,27.30
2018-07-04T10:32:54.982Z,27.20
2018-07-04T10:35:34.874Z,26.20
2018-07-04T10:38:14.928Z,24.00
2018-07-04T10:40:54.970Z,24.40
2018-07-04T10:43:34.833Z,25.80
2018-07-04T10:46:14.862Z,25.80
2018-07-04T10:48:54.845Z,22.80
2018-07-04T10:51:34.722Z,24.10
2018-07-04T10:54:14.646Z,24.70
2018-07-04T10:56:54.558Z,25.60
2018-07-04T10:59:34.432Z,24.60
2018-07-04T11:02:14.582Z,25.50
2018-07-04T11:04:54.979Z,26.60
2018-07-04T11:07:35.006Z,25.20
2018-07-04T11:10:14.906Z,25.90
2018-07-04T11:12:55.114Z,26.60
2018-07-04T11:15:35.158Z,26.80
2018-07-04T11:18:15.168Z,26.30
2018-07-04T11:23:29.334Z,26.10
2018-07-04T11:26:09.197Z,25.40
2018-07-04T11:28:49.097Z,26.50
2018-07-04T11:31:29.038Z,25.80
2018-07-04T11:34:09.108Z,25.20
2018-07-04T11:36:49.260Z,25.70
2018-07-04T11:39:29.135Z,22.80
2018-07-04T11:42:09.078Z,21.80
2018-07-04T11:44:49.206Z,21.70
2018-07-04T11:47:16.668Z,23.60
2018-07-04T11:49:44.230Z,21.60
2018-07-04T11:52:11.758Z,21.10
2018-07-04T11:54:39.350Z,20.70
2018-07-04T11:57:06.915Z,20.90
2018-07-04T11:59:34.427Z,20.70
2018-07-04T12:02:01.919Z,18.90
2018-07-04T12:04:41.858Z,21.30
2018-07-04T12:07:10.430Z,21.20
2018-07-04T12:09:39.090Z,20.90
2018-07-04T12:12:06.666Z,22.00
2018-07-04T12:14:34.372Z,22.10
2018-07-04T12:17:02.208Z,22.50
2018-07-04T12:19:29.702Z,21.00
2018-07-04T12:21:57.199Z,20.30
2018-07-04T12:24:24.755Z,20.40
2018-07-04T12:26:52.290Z,20.50
2018-07-04T12:29:19.764Z,21.10
2018-07-04T12:31:47.261Z,20.60
2018-07-04T12:34:14.845Z,19.50
2018-07-04T12:36:42.367Z,19.80
2018-07-04T12:39:09.888Z,18.80
2018-07-04T12:41:37.387Z,21.00
2018-07-04T12:44:04.920Z,18.90
2018-07-04T12:46:32.442Z,18.30
2018-07-04T12:49:00.876Z,18.10
2018-07-04T12:51:29.161Z,18.00
2018-07-04T12:54:01.974Z,18.70
2018-07-04T12:56:42.084Z,18.30
2018-07-04T13:01:56.714Z,18.50
2018-07-04T13:04:36.670Z,18.70
2018-07-04T13:07:16.826Z,19.10
2018-07-04T13:09:56.856Z,19.90
2018-07-04T13:12:36.938Z,19.60
2018-07-04T13:15:16.853Z,21.20
2018-07-04T13:17:56.746Z,20.20
2018-07-04T13:20:36.540Z,20.40
2018-07-04T13:23:16.288Z,20.00
2018-07-04T13:25:56.264Z,20.10
2018-07-04T13:28:36.289Z,21.60
2018-07-04T13:31:16.140Z,21.20
2018-07-04T13:33:56.179Z,21.30
2018-07-04T13:36:36.307Z,21.80
2018-07-04T13:39:16.358Z,21.60
2018-07-04T13:44:30.321Z,20.10
2018-07-04T13:47:10.369Z,20.20
2018-07-04T13:49:50.349Z,20.40
2018-07-04T13:52:30.128Z,20.80
2018-07-04T13:55:10.074Z,20.80
2018-07-04T13:57:49.962Z,20.10
2018-07-04T14:00:29.962Z,20.50
2018-07-04T14:03:10.049Z,20.10
2018-07-04T14:05:50.005Z,21.30
2018-07-04T14:08:30.082Z,21.50
2018-07-04T14:11:10.148Z,22.90
2018-07-04T14:13:50.306Z,23.20
2018-07-04T14:16:30.120Z,23.30
2018-07-04T14:19:10.057Z,23.90
2018-07-04T14:21:49.744Z,24.40
2018-07-04T14:24:29.736Z,23.50
2018-07-04T14:27:09.765Z,23.70
2018-07-04T14:29:49.736Z,29.40
2018-07-04T14:32:29.824Z,31.20
2018-07-04T14:35:10.056Z,33.50
2018-07-04T14:37:49.990Z,35.30
2018-07-04T14:40:29.725Z,36.30
2018-07-04T14:43:09.714Z,38.10
2018-07-04T14:45:49.652Z,39.40
2018-07-04T14:48:29.674Z,40.00
2018-07-04T14:51:09.547Z,40.60
2018-07-04T14:53:49.577Z,41.50
2018-07-04T14:56:29.602Z,41.70
2018-07-04T14:59:09.550Z,42.50
2018-07-04T15:01:49.370Z,42.30
2018-07-04T15:04:29.279Z,42.60
2018-07-04T15:07:09.122Z,42.80
2018-07-04T15:09:49.174Z,43.20
2018-07-04T15:12:29.126Z,43.30
2018-07-04T15:15:09.134Z,43.00
2018-07-04T15:17:49.072Z,42.70
2018-07-04T15:20:28.932Z,42.30
2018-07-04T15:23:08.836Z,42.10
2018-07-04T15:25:48.725Z,42.90
2018-07-04T15:28:28.669Z,41.20
2018-07-04T15:31:08.660Z,40.50
2018-07-04T15:33:48.463Z,39.60
2018-07-04T15:36:28.587Z,39.60
2018-07-04T15:39:08.648Z,39.50
2018-07-04T15:41:48.707Z,40.30
2018-07-04T15:44:28.564Z,40.40
2018-07-04T15:47:08.626Z,40.00
2018-07-04T15:49:51.252Z,40.00
2018-07-04T15:52:31.871Z,40.50
2018-07-04T15:55:11.627Z,41.40
2018-07-04T15:57:51.576Z,41.90
2018-07-04T16:00:31.558Z,42.20
2018-07-04T16:05:45.472Z,41.90
2018-07-04T16:08:25.466Z,42.10
2018-07-04T16:11:05.342Z,41.20
2018-07-04T16:13:45.467Z,41.20
2018-07-04T16:16:26.309Z,40.80
2018-07-04T16:19:06.309Z,41.30
2018-07-04T16:21:46.127Z,41.60
2018-07-04T16:24:26.176Z,42.30
2018-07-04T16:27:06.204Z,44.00
2018-07-04T16:29:46.094Z,44.60
2018-07-04T16:32:26.004Z,45.50
2018-07-04T16:35:05.947Z,45.70
2018-07-04T16:37:45.891Z,47.40
2018-07-04T16:40:25.736Z,47.80
2018-07-04T16:43:05.800Z,48.20
2018-07-04T16:45:45.585Z,48.60
2018-07-04T16:48:25.599Z,48.90
2018-07-04T16:51:05.459Z,48.90
2018-07-04T16:53:45.389Z,49.20
2018-07-04T16:56:25.388Z,48.70
2018-07-04T16:59:05.201Z,48.80
2018-07-04T17:01:45.197Z,48.90
2018-07-04T17:04:25.281Z,49.00
2018-07-04T17:07:05.205Z,48.30
2018-07-04T17:09:45.003Z,47.20
2018-07-04T17:12:25.062Z,47.90
2018-07-04T17:15:04.915Z,47.70
2018-07-04T17:17:44.911Z,47.30
2018-07-04T17:22:58.661Z,48.70
2018-07-04T17:25:38.523Z,48.30
2018-07-04T17:28:18.565Z,48.40
2018-07-04T17:30:58.450Z,48.30
2018-07-04T17:33:38.315Z,48.30
2018-07-04T17:36:18.336Z,47.50
2018-07-04T17:38:58.719Z,47.50
2018-07-04T17:41:38.555Z,47.60
2018-07-04T17:44:18.754Z,48.30
2018-07-04T17:46:58.761Z,48.50
2018-07-04T17:49:38.890Z,48.40
2018-07-04T17:52:18.759Z,49.10
2018-07-04T17:54:58.780Z,48.90
2018-07-04T18:00:12.439Z,49.50
2018-07-04T18:02:52.583Z,49.00
2018-07-04T18:05:32.645Z,49.50
2018-07-04T18:08:12.954Z,49.30
2018-07-04T18:10:53.134Z,50.00
2018-07-04T18:13:33.504Z,50.80
2018-07-04T18:16:13.383Z,51.70
2018-07-04T18:18:53.395Z,52.70
2018-07-04T18:21:33.292Z,52.60
2018-07-04T18:24:13.249Z,53.50
2018-07-04T18:26:53.437Z,53.60
2018-07-04T18:29:33.315Z,53.80
2018-07-04T18:32:13.345Z,53.70
2018-07-04T18:34:53.131Z,53.30
2018-07-04T18:37:33.635Z,53.10
2018-07-04T18:40:13.687Z,53.50
2018-07-04T18:42:53.583Z,52.50
2018-07-04T18:45:33.633Z,52.70
2018-07-04T18:48:13.659Z,53.10
2018-07-04T18:50:53.601Z,52.60
2018-07-04T18:53:33.498Z,52.40
2018-07-04T18:56:37.371Z,52.50
2018-07-04T18:59:17.323Z,52.50
2018-07-04T19:01:57.166Z,53.10
2018-07-04T19:04:37.171Z,54.70
2018-07-04T19:07:17.137Z,56.10
2018-07-04T19:09:57.211Z,54.50
2018-07-04T19:12:37.573Z,54.60
2018-07-04T19:15:17.442Z,54.70
2018-07-04T19:17:57.265Z,54.90
2018-07-04T19:20:37.095Z,54.90
2018-07-04T19:23:17.193Z,55.30
2018-07-04T19:25:57.183Z,55.20
2018-07-04T19:28:37.099Z,57.70
2018-07-04T19:31:17.349Z,58.10
2018-07-04T19:33:57.261Z,60.80
2018-07-04T19:36:37.061Z,62.00
2018-07-04T19:39:16.999Z,61.00
2018-07-04T19:41:56.907Z,63.50
2018-07-04T19:44:43.511Z,66.00
2018-07-04T19:47:28.184Z,65.70
2018-07-04T19:50:08.289Z,66.40
2018-07-04T19:52:48.356Z,66.90
2018-07-04T19:55:29.188Z,66.90
2018-07-04T19:58:09.462Z,69.50
2018-07-04T20:00:49.415Z,66.90
2018-07-04T20:03:29.315Z,66.70
2018-07-04T20:06:09.285Z,67.90
2018-07-04T20:08:49.150Z,70.20
2018-07-04T20:11:29.115Z,68.50
2018-07-04T20:14:09.111Z,69.80
2018-07-04T20:16:49.261Z,69.30
2018-07-04T20:19:29.042Z,69.40
2018-07-04T20:22:08.952Z,71.70
2018-07-04T20:24:48.947Z,71.40
2018-07-04T20:27:28.843Z,70.40
2018-07-04T20:30:08.753Z,69.50
2018-07-04T20:32:48.965Z,68.90
2018-07-04T20:35:28.890Z,71.80
2018-07-04T20:38:08.816Z,69.70
2018-07-04T20:40:49.027Z,71.30
2018-07-04T20:43:28.946Z,69.60
2018-07-04T20:46:08.828Z,68.70
2018-07-04T20:48:48.865Z,70.70
2018-07-04T20:51:29.055Z,69.60
2018-07-04T20:54:08.925Z,68.70
2018-07-04T20:56:48.891Z,68.60
2018-07-04T20:59:28.959Z,69.10
2018-07-04T21:02:11.075Z,69.00
2018-07-04T21:04:51.089Z,68.80
2018-07-04T21:07:31.135Z,69.20
2018-07-04T21:10:11.231Z,69.00
2018-07-04T21:12:51.263Z,67.50
2018-07-04T21:15:31.199Z,67.30
2018-07-04T21:18:10.983Z,67.30
2018-07-04T21:20:50.832Z,66.60
2018-07-04T21:23:30.709Z,66.70
2018-07-04T21:26:10.665Z,67.20
2018-07-04T21:28:50.601Z,67.10
2018-07-04T21:31:30.839Z,68.30
2018-07-04T21:34:10.748Z,68.00
2018-07-04T21:36:50.735Z,67.50
2018-07-04T21:39:30.858Z,68.10
2018-07-04T21:42:10.777Z,68.20
2018-07-04T21:47:26.951Z,67.80
2018-07-04T21:50:06.843Z,68.20
2018-07-04T21:52:46.906Z,69.40
2018-07-04T21:55:26.790Z,70.00
2018-07-04T21:58:06.763Z,69.60
2018-07-04T22:00:46.644Z,69.20
2018-07-04T22:03:26.568Z,69.60
2018-07-04T22:08:40.768Z,70.50
2018-07-04T22:11:20.648Z,70.10
2018-07-04T22:14:00.833Z,70.70
2018-07-04T22:16:40.957Z,71.00
2018-07-04T22:19:20.999Z,71.00
2018-07-04T22:22:00.782Z,71.40
2018-07-04T22:24:40.665Z,71.60
2018-07-04T22:29:54.560Z,73.00
2018-07-04T22:32:34.516Z,72.60
2018-07-04T22:35:14.707Z,73.60
2018-07-04T22:37:56.021Z,73.00
2018-07-04T22:40:35.978Z,73.20
2018-07-04T22:43:15.943Z,73.90
2018-07-04T22:45:55.742Z,74.30
2018-07-04T22:48:35.767Z,74.30
2018-07-04T22:51:15.705Z,74.70
2018-07-04T22:53:55.653Z,75.20
2018-07-04T22:56:35.529Z,75.00
2018-07-04T22:59:15.448Z,75.40
2018-07-04T23:01:59.097Z,75.90
2018-07-04T23:04:39.472Z,76.30
2018-07-04T23:07:19.407Z,76.20
2018-07-04T23:09:59.342Z,76.60
2018-07-04T23:12:39.340Z,76.80
2018-07-04T23:15:19.162Z,76.90
2018-07-04T23:17:59.525Z,77.40
2018-07-04T23:20:39.735Z,77.30
2018-07-04T23:23:19.563Z,77.70
2018-07-04T23:25:59.619Z,78.20
2018-07-04T23:28:43.603Z,78.10
2018-07-04T23:31:23.477Z,78.30
2018-07-04T23:34:03.688Z,78.00
2018-07-04T23:36:43.724Z,79.10
2018-07-04T23:39:23.556Z,79.40
2018-07-04T23:42:06.896Z,79.70
2018-07-04T23:44:46.958Z,80.40
2018-07-04T23:47:26.964Z,80.70
2018-07-04T23:50:06.843Z,81.40
2018-07-04T23:52:46.945Z,81.50
2018-07-04T23:55:26.725Z,82.00
2018-07-04T23:58:06.976Z,82.40
